createdAt,value
2019-03-01T00:08:01.026Z,21.63
2019-03-01T00:18:46.313Z,16.48
2019-03-01T00:29:24.291Z,19.00
2019-03-01T00:40:11.316Z,20.68
2019-03-01T00:50:13.276Z,15.70
2019-03-01T01:00:21.708Z,13.55
2019-03-01T01:10:23.657Z,19.32
2019-03-01T01:20:26.039Z,14.68
2019-03-01T01:30:28.363Z,15.17
2019-03-01T01:40:30.652Z,19.30
2019-03-01T01:50:32.885Z,19.33
2019-03-01T02:00:35.258Z,16.25
2019-03-01T02:10:37.260Z,13.13
2019-03-01T02:20:39.311Z,14.10
2019-03-01T02:30:44.019Z,14.53
2019-03-01T02:40:46.019Z,18.40
2019-03-01T02:50:47.995Z,13.98
2019-03-01T03:00:50.637Z,17.27
2019-03-01T03:10:52.590Z,19.23
2019-03-01T03:20:55.203Z,20.00
2019-03-01T03:30:57.151Z,19.53
2019-03-01T03:40:59.109Z,21.80
2019-03-01T03:51:01.069Z,23.92
2019-03-01T04:01:04.377Z,20.70
2019-03-01T04:21:08.115Z,19.73
2019-03-01T04:31:10.698Z,24.80
2019-03-01T04:41:12.772Z,17.03
2019-03-01T04:51:15.054Z,28.67
2019-03-01T05:01:17.130Z,25.30
2019-03-01T05:11:19.093Z,20.17
2019-03-01T05:21:21.111Z,20.32
2019-03-01T05:31:24.597Z,34.75
2019-03-01T05:41:26.628Z,53.13
2019-03-01T05:51:28.852Z,35.70
2019-03-01T06:02:10.845Z,32.80
2019-03-01T06:12:42.492Z,34.43
2019-03-01T06:23:10.726Z,49.93
2019-03-01T06:33:51.688Z,69.87
2019-03-01T06:44:22.528Z,86.40
2019-03-01T06:54:24.723Z,107.52
2019-03-01T07:04:26.930Z,134.00
2019-03-01T07:14:29.135Z,146.05
2019-03-01T07:24:31.251Z,150.12
2019-03-01T07:34:34.331Z,136.50
2019-03-01T07:44:36.487Z,143.78
2019-03-01T07:54:38.477Z,158.05
2019-03-01T08:04:40.426Z,157.37
2019-03-01T08:15:04.079Z,148.97
2019-03-01T08:25:07.307Z,171.20
2019-03-01T08:35:10.745Z,150.78
2019-03-01T08:45:14.470Z,172.95
2019-03-01T08:55:17.139Z,161.28
2019-03-01T09:05:19.092Z,153.27
2019-03-01T09:15:21.159Z,144.28
2019-03-01T09:25:24.130Z,140.15
2019-03-01T09:35:26.570Z,136.62
2019-03-01T09:45:35.803Z,141.83
2019-03-01T09:55:34.764Z,130.87
2019-03-01T10:05:37.501Z,111.03
2019-03-01T10:25:42.859Z,123.82
2019-03-01T10:45:46.751Z,140.60
2019-03-01T10:55:48.899Z,134.27
2019-03-01T11:05:53.011Z,137.88
2019-03-01T11:15:55.074Z,125.15
2019-03-01T11:25:57.453Z,99.75
2019-03-01T11:35:59.835Z,98.37
2019-03-01T11:46:01.786Z,88.90
2019-03-01T11:56:04.155Z,80.10
2019-03-01T12:06:06.107Z,78.53
2019-03-01T12:16:08.512Z,75.72
2019-03-01T12:26:10.667Z,62.67
2019-03-01T12:36:12.618Z,59.90
2019-03-01T12:46:14.546Z,35.80
2019-03-01T12:56:16.484Z,44.55
2019-03-01T13:06:18.730Z,53.63
2019-03-01T13:16:23.407Z,66.50
2019-03-01T13:26:24.710Z,61.25
2019-03-01T13:36:32.648Z,78.90
2019-03-01T13:46:54.073Z,59.05
2019-03-01T13:56:56.111Z,58.90
2019-03-01T14:06:58.440Z,57.15
2019-03-01T14:17:00.478Z,40.88
2019-03-01T14:27:02.687Z,31.07
2019-03-01T14:37:04.938Z,30.32
2019-03-01T14:47:06.898Z,28.50
2019-03-01T14:57:23.950Z,25.45
2019-03-01T15:07:27.905Z,30.12
2019-03-01T15:17:32.018Z,24.05
2019-03-01T15:27:39.688Z,28.27
2019-03-01T15:37:37.964Z,31.40
2019-03-01T15:47:39.922Z,37.30
2019-03-01T15:57:42.272Z,30.72
2019-03-01T16:07:44.800Z,36.58
2019-03-01T16:17:47.114Z,32.20
2019-03-01T16:27:50.804Z,35.70
2019-03-01T16:37:53.218Z,29.87
2019-03-01T16:47:55.144Z,34.03
2019-03-01T16:58:06.195Z,34.03
2019-03-01T17:08:05.575Z,34.13
2019-03-01T17:18:11.260Z,30.90
2019-03-01T17:28:10.618Z,28.32
2019-03-01T17:38:12.909Z,30.03
2019-03-01T17:48:18.438Z,25.65
2019-03-01T17:58:18.956Z,15.10
2019-03-01T18:08:20.904Z,25.40
2019-03-01T18:18:23.781Z,15.32
2019-03-01T18:28:28.360Z,14.70
2019-03-01T18:38:31.307Z,36.17
2019-03-01T18:48:33.944Z,37.85
2019-03-01T18:58:36.325Z,17.82
2019-03-01T19:08:39.605Z,21.00
2019-03-01T19:18:51.230Z,13.32
2019-03-01T19:28:54.166Z,11.95
2019-03-01T19:38:56.732Z,22.48
2019-03-01T19:49:00.387Z,14.68
2019-03-01T19:59:02.412Z,29.40
2019-03-01T20:09:05.329Z,10.63
2019-03-01T20:19:07.621Z,11.12
2019-03-01T20:29:10.110Z,17.15
2019-03-01T20:39:15.407Z,8.67
2019-03-01T20:49:15.766Z,8.85
2019-03-01T20:59:17.918Z,6.92
2019-03-01T21:09:19.855Z,10.90
2019-03-01T21:19:21.783Z,9.63
2019-03-01T21:29:24.592Z,11.80
2019-03-01T21:39:28.234Z,8.77
2019-03-01T21:49:30.274Z,12.33
2019-03-01T21:59:32.258Z,22.73
2019-03-01T22:09:34.619Z,23.90
2019-03-01T22:19:36.592Z,17.82
2019-03-01T22:29:38.594Z,14.23
2019-03-01T22:39:42.806Z,22.60
2019-03-01T22:49:44.772Z,16.82
2019-03-01T22:59:47.248Z,17.55
2019-03-01T23:09:50.603Z,21.15
2019-03-01T23:19:52.863Z,23.47
2019-03-01T23:29:55.047Z,26.48
2019-03-01T23:40:00.592Z,18.85
2019-03-01T23:50:00.906Z,18.07
